createdAt,value
2019-02-16T00:00:55.021Z,96337.55
2019-02-16T00:03:24.658Z,96337.65
2019-02-16T00:05:54.320Z,96337.65
2019-02-16T00:08:23.964Z,96334.28
2019-02-16T00:10:53.563Z,96334.28
2019-02-16T00:13:23.099Z,96324.70
2019-02-16T00:15:52.818Z,96336.61
2019-02-16T00:18:23.055Z,96342.23
2019-02-16T00:20:52.835Z,96344.30
2019-02-16T00:23:22.469Z,96343.71
2019-02-16T00:25:52.176Z,96342.22
2019-02-16T00:28:21.848Z,96342.64
2019-02-16T00:30:51.438Z,96342.39
2019-02-16T00:33:21.050Z,96339.14
2019-02-16T00:35:50.950Z,96338.88
2019-02-16T00:38:20.659Z,96333.23
2019-02-16T00:40:50.290Z,96342.47
2019-02-16T00:43:19.903Z,96339.56
2019-02-16T00:45:49.414Z,96335.25
2019-02-16T00:48:19.052Z,96331.70
2019-02-16T00:50:48.571Z,96331.70
2019-02-16T00:53:18.307Z,96334.61
2019-02-16T00:55:47.922Z,96332.14
2019-02-16T00:58:17.622Z,96332.21
2019-02-16T01:00:47.345Z,96330.64
2019-02-16T01:03:17.072Z,96325.30
2019-02-16T01:05:46.692Z,96325.30
2019-02-16T01:08:16.419Z,96320.12
2019-02-16T01:10:46.321Z,96320.25
2019-02-16T01:13:19.066Z,96320.25
2019-02-16T01:15:48.712Z,96318.63
2019-02-16T01:18:18.300Z,96313.71
2019-02-16T01:20:48.122Z,96311.63
2019-02-16T01:23:17.742Z,96313.11
2019-02-16T01:25:47.477Z,96313.11
2019-02-16T01:28:17.139Z,96313.50
2019-02-16T01:30:46.775Z,96319.39
2019-02-16T01:33:16.286Z,96319.39
2019-02-16T01:35:45.816Z,96315.34
2019-02-16T01:38:15.436Z,96315.34
2019-02-16T01:40:45.154Z,96304.53
2019-02-16T01:43:14.788Z,96300.37
2019-02-16T01:45:44.376Z,96300.37
2019-02-16T01:48:13.995Z,96297.84
2019-02-16T01:50:43.664Z,96297.84
2019-02-16T01:53:15.358Z,96291.66
2019-02-16T01:55:44.718Z,96289.44
2019-02-16T01:58:14.418Z,96293.11
2019-02-16T02:00:44.091Z,96304.73
2019-02-16T02:03:13.723Z,96293.08
2019-02-16T02:05:43.356Z,96292.00
2019-02-16T02:08:13.047Z,96296.53
2019-02-16T02:10:42.656Z,96300.12
2019-02-16T02:13:12.353Z,96289.72
2019-02-16T02:15:42.107Z,96289.72
2019-02-16T02:18:11.789Z,96304.97
2019-02-16T02:20:41.410Z,96304.97
2019-02-16T02:23:11.034Z,96288.09
2019-02-16T02:25:40.613Z,96292.39
2019-02-16T02:28:10.233Z,96295.67
2019-02-16T02:30:40.174Z,96302.67
2019-02-16T02:33:09.949Z,96302.67
2019-02-16T02:35:39.575Z,96298.56
2019-02-16T02:38:09.355Z,96301.80
2019-02-16T02:40:39.121Z,96305.55
2019-02-16T02:43:08.652Z,96305.55
2019-02-16T02:45:38.268Z,96308.32
2019-02-16T02:48:07.939Z,96298.01
2019-02-16T02:50:37.678Z,96298.01
2019-02-16T02:53:07.460Z,96299.41
2019-02-16T02:55:37.089Z,96298.91
2019-02-16T02:58:06.749Z,96298.91
2019-02-16T03:00:36.237Z,96297.40
2019-02-16T03:03:05.819Z,96297.40
2019-02-16T03:05:35.583Z,96297.44
2019-02-16T03:08:05.404Z,96308.26
2019-02-16T03:10:35.029Z,96308.26
2019-02-16T03:13:04.754Z,96301.36
2019-02-16T03:15:34.379Z,96306.64
2019-02-16T03:18:06.478Z,96294.47
2019-02-16T03:20:36.077Z,96303.36
2019-02-16T03:23:16.698Z,96306.97
2019-02-16T03:25:52.812Z,96306.97
2019-02-16T03:28:48.506Z,96314.00
2019-02-16T03:32:07.111Z,96314.00
2019-02-16T03:35:17.373Z,96312.94
2019-02-16T03:38:34.168Z,96313.36
2019-02-16T03:41:03.845Z,96313.36
2019-02-16T03:43:35.976Z,96309.66
2019-02-16T03:46:05.612Z,96309.66
2019-02-16T03:48:35.179Z,96308.58
2019-02-16T03:51:04.941Z,96303.67
2019-02-16T03:53:34.432Z,96303.67
2019-02-16T03:56:04.183Z,96303.88
2019-02-16T03:58:33.890Z,96302.52
2019-02-16T04:01:03.651Z,96298.41
2019-02-16T04:03:33.129Z,96300.92
2019-02-16T04:06:02.748Z,96297.60
2019-02-16T04:08:32.423Z,96297.60
2019-02-16T04:11:02.191Z,96297.48
2019-02-16T04:13:32.236Z,96297.48
2019-02-16T04:16:02.014Z,96292.67
2019-02-16T04:18:31.700Z,96286.01
2019-02-16T04:21:01.365Z,96280.89
2019-02-16T04:23:30.877Z,96280.89
2019-02-16T04:26:00.565Z,96285.73
2019-02-16T04:28:30.547Z,96266.16
2019-02-16T04:31:00.176Z,96282.23
2019-02-16T04:33:29.903Z,96275.48
2019-02-16T04:35:59.624Z,96283.22
2019-02-16T04:38:29.214Z,96283.22
2019-02-16T04:40:58.982Z,96282.66
2019-02-16T04:43:28.649Z,96285.91
2019-02-16T04:45:58.179Z,96285.91
2019-02-16T04:48:27.800Z,96289.28
2019-02-16T04:50:57.470Z,96292.25
2019-02-16T04:53:27.225Z,96292.25
2019-02-16T04:55:56.994Z,96296.64
2019-02-16T04:58:26.700Z,96305.02
2019-02-16T05:00:56.599Z,96307.30
2019-02-16T05:03:26.247Z,96307.30
2019-02-16T05:05:55.959Z,96313.68
2019-02-16T05:08:25.621Z,96315.21
2019-02-16T05:10:55.401Z,96313.06
2019-02-16T05:13:25.015Z,96314.93
2019-02-16T05:15:54.624Z,96325.52
2019-02-16T05:18:24.319Z,96327.45
2019-02-16T05:20:54.047Z,96330.84
2019-02-16T05:23:23.682Z,96331.66
2019-02-16T05:25:53.386Z,96330.97
2019-02-16T05:28:23.086Z,96337.36
2019-02-16T05:30:52.754Z,96334.34
2019-02-16T05:33:22.426Z,96332.71
2019-02-16T05:35:52.067Z,96337.83
2019-02-16T05:38:23.289Z,96342.70
2019-02-16T05:40:52.834Z,96347.13
2019-02-16T05:43:22.557Z,96347.83
2019-02-16T05:45:52.296Z,96347.73
2019-02-16T05:48:21.927Z,96354.81
2019-02-16T05:50:51.510Z,96350.16
2019-02-16T05:53:22.798Z,96350.16
2019-02-16T05:55:52.531Z,96353.48
2019-02-16T05:58:24.330Z,96352.94
2019-02-16T06:00:53.983Z,96361.62
2019-02-16T06:03:23.622Z,96357.77
2019-02-16T06:05:53.329Z,96357.77
2019-02-16T06:08:23.118Z,96358.90
2019-02-16T06:10:52.702Z,96340.00
2019-02-16T06:13:22.365Z,96340.00
2019-02-16T06:15:52.045Z,96334.98
2019-02-16T06:18:21.758Z,96334.98
2019-02-16T06:20:51.418Z,96339.22
2019-02-16T06:23:21.009Z,96345.05
2019-02-16T06:25:50.646Z,96344.20
2019-02-16T06:28:20.409Z,96345.36
2019-02-16T06:30:50.112Z,96350.30
2019-02-16T06:33:19.755Z,96350.30
2019-02-16T06:35:52.379Z,96355.50
2019-02-16T06:38:22.181Z,96358.73
2019-02-16T06:40:51.908Z,96358.73
2019-02-16T06:43:21.505Z,96357.97
2019-02-16T06:45:51.157Z,96361.06
2019-02-16T06:48:20.897Z,96356.75
2019-02-16T06:50:50.570Z,96363.59
2019-02-16T06:53:20.146Z,96362.91
2019-02-16T06:56:06.112Z,96366.23
2019-02-16T06:58:37.091Z,96367.34
2019-02-16T07:01:06.837Z,96371.44
2019-02-16T07:03:36.609Z,96372.83
2019-02-16T07:06:08.421Z,96371.16
2019-02-16T07:08:38.154Z,96374.44
2019-02-16T07:11:07.937Z,96368.05
2019-02-16T07:13:37.668Z,96362.88
2019-02-16T07:16:32.123Z,96369.00
2019-02-16T07:19:11.413Z,96362.98
2019-02-16T07:21:41.150Z,96370.08
2019-02-16T07:24:10.763Z,96375.45
2019-02-16T07:26:40.558Z,96378.89
2019-02-16T07:29:10.144Z,96375.80
2019-02-16T07:31:39.972Z,96381.19
2019-02-16T07:34:09.933Z,96383.17
2019-02-16T07:36:39.521Z,96391.44
2019-02-16T07:39:09.950Z,96389.73
2019-02-16T07:41:39.503Z,96398.88
2019-02-16T07:44:33.351Z,96390.18
2019-02-16T07:47:22.894Z,96398.53
2019-02-16T07:50:12.516Z,96394.08
2019-02-16T07:53:10.557Z,96397.67
2019-02-16T07:55:58.707Z,96386.46
2019-02-16T07:58:39.148Z,96384.00
2019-02-16T08:01:17.988Z,96381.80
2019-02-16T08:04:12.461Z,96376.58
2019-02-16T08:07:04.094Z,96372.55
2019-02-16T08:09:52.835Z,96372.20
2019-02-16T08:12:31.857Z,96374.57
2019-02-16T08:15:15.131Z,96360.80
2019-02-16T08:18:10.990Z,96365.22
2019-02-16T08:21:02.582Z,96362.49
2019-02-16T08:23:51.667Z,96356.94
2019-02-16T08:26:37.869Z,96347.45
2019-02-16T08:29:29.337Z,96347.39
2019-02-16T08:32:11.194Z,96353.33
2019-02-16T08:35:05.624Z,96348.92
2019-02-16T08:37:45.007Z,96348.27
2019-02-16T08:40:21.116Z,96353.52
2019-02-16T08:43:24.921Z,96351.33
2019-02-16T08:46:05.038Z,96358.84
2019-02-16T08:48:49.496Z,96358.16
2019-02-16T08:51:36.632Z,96356.76
2019-02-16T08:54:37.384Z,96365.03
2019-02-16T08:57:19.923Z,96359.20
2019-02-16T09:00:16.481Z,96364.36
2019-02-16T09:03:05.347Z,96366.26
2019-02-16T09:05:53.949Z,96363.27
2019-02-16T09:08:42.764Z,96353.16
2019-02-16T09:11:19.780Z,96354.99
2019-02-16T09:13:57.252Z,96347.27
2019-02-16T09:16:38.535Z,96341.59
2019-02-16T09:19:24.073Z,96350.08
2019-02-16T09:22:09.042Z,96347.00
2019-02-16T09:25:03.702Z,96344.51
2019-02-16T09:27:52.313Z,96333.92
2019-02-16T09:30:43.968Z,96333.97
2019-02-16T09:33:27.385Z,96332.02
2019-02-16T09:36:03.199Z,96330.80
2019-02-16T09:38:50.332Z,96325.13
2019-02-16T09:41:41.911Z,96327.30
2019-02-16T09:44:29.480Z,96330.37
2019-02-16T09:47:29.941Z,96329.75
2019-02-16T09:50:03.921Z,96333.48
2019-02-16T09:52:52.259Z,96330.58
2019-02-16T09:55:49.982Z,96332.89
2019-02-16T09:58:37.703Z,96331.63
2019-02-16T10:01:24.946Z,96328.42
2019-02-16T10:04:00.296Z,96316.39
2019-02-16T10:06:48.893Z,96310.52
2019-02-16T10:09:36.110Z,96308.42
2019-02-16T10:12:20.244Z,96309.50
2019-02-16T10:15:18.041Z,96302.27
2019-02-16T10:18:00.667Z,96297.02
2019-02-16T10:21:01.638Z,96293.09
2019-02-16T10:23:53.271Z,96290.04
2019-02-16T10:26:53.889Z,96297.37
2019-02-16T10:29:48.315Z,96292.83
2019-02-16T10:32:41.387Z,96287.64
2019-02-16T10:35:39.383Z,96286.23
2019-02-16T10:38:15.422Z,96285.04
2019-02-16T10:41:02.840Z,96281.92
2019-02-16T10:43:48.418Z,96278.34
2019-02-16T10:46:36.433Z,96275.78
2019-02-16T10:49:18.729Z,96281.09
2019-02-16T10:51:57.704Z,96275.45
2019-02-16T10:54:52.350Z,96267.62
2019-02-16T10:57:39.778Z,96255.16
2019-02-16T11:00:28.250Z,96247.78
2019-02-16T11:03:19.599Z,96252.78
2019-02-16T11:06:11.109Z,96242.70
2019-02-16T11:08:59.751Z,96240.80
2019-02-16T11:11:51.238Z,96233.76
2019-02-16T11:14:34.876Z,96230.97
2019-02-16T11:17:17.553Z,96225.16
2019-02-16T11:20:18.081Z,96220.50
2019-02-16T11:22:57.345Z,96218.81
2019-02-16T11:25:39.791Z,96214.08
2019-02-16T11:28:28.432Z,96213.27
2019-02-16T11:31:31.975Z,96211.16
2019-02-16T11:34:18.008Z,96210.30
2019-02-16T11:37:06.874Z,96206.63
2019-02-16T11:39:52.262Z,96210.89
2019-02-16T11:42:39.901Z,96203.47
2019-02-16T11:45:20.021Z,96203.45
2019-02-16T11:48:04.930Z,96191.53
2019-02-16T11:50:49.298Z,96186.47
2019-02-16T11:53:46.710Z,96195.90
2019-02-16T11:56:37.921Z,96195.23
2019-02-16T11:59:23.965Z,96183.48
2019-02-16T12:01:59.452Z,96186.88
2019-02-16T12:04:48.163Z,96174.18
2019-02-16T12:07:42.457Z,96169.88
2019-02-16T12:10:46.601Z,96177.47
2019-02-16T12:13:32.183Z,96171.20
2019-02-16T12:16:20.677Z,96172.78
2019-02-16T12:19:24.360Z,96175.41
2019-02-16T12:22:15.823Z,96169.42
2019-02-16T12:25:13.238Z,96164.55
2019-02-16T12:28:01.695Z,96168.56
2019-02-16T12:30:53.005Z,96163.30
2019-02-16T12:33:44.544Z,96164.02
2019-02-16T12:36:31.885Z,96165.43
2019-02-16T12:39:26.564Z,96166.02
2019-02-16T12:42:09.393Z,96162.59
2019-02-16T12:45:12.912Z,96153.98
2019-02-16T12:48:04.626Z,96158.25
2019-02-16T12:50:51.932Z,96149.15
2019-02-16T12:53:47.063Z,96151.89
2019-02-16T12:56:29.082Z,96146.50
2019-02-16T12:59:24.127Z,96146.63
2019-02-16T13:02:16.658Z,96144.42
2019-02-16T13:05:14.493Z,96134.61
2019-02-16T13:07:51.500Z,96136.20
2019-02-16T13:10:27.647Z,96137.44
2019-02-16T13:13:10.185Z,96135.88
2019-02-16T13:15:46.542Z,96131.25
2019-02-16T13:18:47.399Z,96138.77
2019-02-16T13:21:35.989Z,96139.27
2019-02-16T13:24:24.174Z,96140.38
2019-02-16T13:27:24.925Z,96135.37
2019-02-16T13:30:07.251Z,96127.45
2019-02-16T13:32:44.169Z,96135.06
2019-02-16T13:35:23.935Z,96128.44
2019-02-16T13:38:18.663Z,96122.91
2019-02-16T13:41:05.441Z,96129.34
2019-02-16T13:43:49.431Z,96125.62
2019-02-16T13:46:38.147Z,96122.60
2019-02-16T13:49:18.879Z,96125.94
2019-02-16T13:52:13.778Z,96121.08
2019-02-16T13:54:51.502Z,96115.06
2019-02-16T13:57:37.313Z,96111.95
2019-02-16T14:00:15.684Z,96117.58
2019-02-16T14:03:00.878Z,96107.70
2019-02-16T14:05:37.422Z,96104.16
2019-02-16T14:08:15.142Z,96104.27
2019-02-16T14:11:03.491Z,96103.64
2019-02-16T14:14:00.155Z,96105.95
2019-02-16T14:16:54.713Z,96111.16
2019-02-16T14:19:24.328Z,96114.59
2019-02-16T14:21:53.870Z,96113.60
2019-02-16T14:24:41.289Z,96111.66
2019-02-16T14:27:11.088Z,96111.47
2019-02-16T14:29:40.714Z,96112.93
2019-02-16T14:32:10.345Z,96112.25
2019-02-16T14:34:42.021Z,96105.72
2019-02-16T14:37:26.108Z,96099.75
2019-02-16T14:39:55.894Z,96100.25
2019-02-16T14:42:25.623Z,96098.64
2019-02-16T14:44:55.353Z,96097.43
2019-02-16T14:47:25.130Z,96094.73
2019-02-16T14:49:54.951Z,96086.42
2019-02-16T14:52:24.740Z,96093.53
2019-02-16T14:54:54.427Z,96088.95
2019-02-16T14:57:25.608Z,96086.14
2019-02-16T14:59:55.289Z,96088.03
2019-02-16T15:02:24.751Z,96084.28
2019-02-16T15:04:54.389Z,96091.95
2019-02-16T15:07:26.119Z,96085.40
2019-02-16T15:09:55.824Z,96089.79
2019-02-16T15:12:25.320Z,96085.45
2019-02-16T15:14:54.882Z,96081.22
2019-02-16T15:17:28.663Z,96082.78
2019-02-16T15:19:55.920Z,96086.30
2019-02-16T15:22:25.601Z,96087.66
2019-02-16T15:24:55.315Z,96091.55
2019-02-16T15:27:25.251Z,96088.10
2019-02-16T15:29:54.758Z,96095.58
2019-02-16T15:32:24.434Z,96094.50
2019-02-16T15:34:54.114Z,96098.65
2019-02-16T15:37:23.910Z,96101.42
2019-02-16T15:39:53.679Z,96096.75
2019-02-16T15:42:23.249Z,96095.98
2019-02-16T15:44:53.004Z,96102.05
2019-02-16T15:47:22.645Z,96101.23
2019-02-16T15:49:52.350Z,96104.67
2019-02-16T15:52:21.801Z,96104.42
2019-02-16T15:54:51.925Z,96105.69
2019-02-16T15:57:21.550Z,96103.97
2019-02-16T15:59:51.249Z,96111.00
2019-02-16T16:02:21.025Z,96105.59
2019-02-16T16:04:50.705Z,96105.25
2019-02-16T16:07:20.263Z,96104.22
2019-02-16T16:10:04.913Z,96103.12
2019-02-16T16:12:56.569Z,96111.33
2019-02-16T16:15:44.782Z,96113.66
2019-02-16T16:18:39.454Z,96123.38
2019-02-16T16:21:23.661Z,96126.31
2019-02-16T16:24:15.338Z,96125.33
2019-02-16T16:27:03.185Z,96125.89
2019-02-16T16:29:50.526Z,96130.11
2019-02-16T16:32:41.941Z,96130.11
2019-02-16T16:35:21.389Z,96131.47
2019-02-16T16:38:12.957Z,96137.35
2019-02-16T16:41:00.534Z,96135.31
2019-02-16T16:43:38.228Z,96142.42
2019-02-16T16:46:39.377Z,96137.59
2019-02-16T16:49:40.315Z,96137.59
2019-02-16T16:52:20.498Z,96150.84
2019-02-16T16:55:18.519Z,96157.82
2019-02-16T16:58:12.947Z,96157.82
2019-02-16T17:01:00.434Z,96155.89
2019-02-16T17:04:07.484Z,96158.28
2019-02-16T17:06:53.305Z,96158.28
2019-02-16T17:09:40.198Z,96167.38
2019-02-16T17:12:25.248Z,96167.38
2019-02-16T17:15:05.478Z,96171.31
2019-02-16T17:17:52.321Z,96180.02
2019-02-16T17:20:37.032Z,96179.09
2019-02-16T17:23:24.461Z,96182.30
2019-02-16T17:26:25.120Z,96176.98
2019-02-16T17:29:25.752Z,96179.41
2019-02-16T17:32:13.429Z,96178.46
2019-02-16T17:35:00.776Z,96184.95
2019-02-16T17:37:52.116Z,96184.95
2019-02-16T17:40:41.244Z,96186.56
2019-02-16T17:43:29.842Z,96189.47
2019-02-16T17:46:27.457Z,96186.55
2019-02-16T17:49:13.826Z,96182.06
2019-02-16T17:52:00.208Z,96182.36
2019-02-16T17:54:37.120Z,96188.16
2019-02-16T17:57:25.881Z,96188.16
2019-02-16T18:00:26.531Z,96186.55
2019-02-16T18:03:20.989Z,96188.49
2019-02-16T18:06:08.139Z,96186.09
2019-02-16T18:08:55.246Z,96185.91
2019-02-16T18:11:42.645Z,96189.45
2019-02-16T18:14:43.229Z,96191.23
2019-02-16T18:17:30.539Z,96195.89
2019-02-16T18:20:25.226Z,96196.23
2019-02-16T18:23:13.951Z,96196.83
2019-02-16T18:25:57.722Z,96190.25
2019-02-16T18:29:00.017Z,96196.83
2019-02-16T18:31:45.554Z,96194.59
2019-02-16T18:34:25.699Z,96202.97
2019-02-16T18:37:23.345Z,96203.92
2019-02-16T18:40:14.682Z,96204.72
2019-02-16T18:43:03.456Z,96199.88
2019-02-16T18:45:43.323Z,96197.93
2019-02-16T18:48:20.800Z,96201.30
2019-02-16T18:51:00.971Z,96200.00
2019-02-16T18:53:48.057Z,96197.56
2019-02-16T18:56:35.653Z,96200.02
2019-02-16T18:59:13.554Z,96197.77
2019-02-16T19:01:49.357Z,96197.78
2019-02-16T19:04:25.560Z,96197.78
2019-02-16T19:07:01.004Z,96203.56
2019-02-16T19:09:52.393Z,96200.62
2019-02-16T19:12:44.516Z,96194.51
2019-02-16T19:15:31.956Z,96199.30
2019-02-16T19:18:19.175Z,96194.78
2019-02-16T19:20:55.784Z,96190.73
2019-02-16T19:23:46.031Z,96194.42
2019-02-16T19:26:33.594Z,96195.38
2019-02-16T19:29:17.963Z,96197.17
2019-02-16T19:32:06.492Z,96201.84
2019-02-16T19:35:01.293Z,96201.81
2019-02-16T19:37:40.424Z,96205.34
2019-02-16T19:40:26.882Z,96210.50
2019-02-16T19:43:21.567Z,96210.67
2019-02-16T19:46:19.392Z,96216.78
2019-02-16T19:49:08.119Z,96215.05
2019-02-16T19:51:55.455Z,96223.08
2019-02-16T19:54:35.467Z,96211.45
2019-02-16T19:57:32.603Z,96214.28
2019-02-16T20:00:27.129Z,96218.34
2019-02-16T20:03:24.677Z,96221.09
2019-02-16T20:06:19.107Z,96221.55
2019-02-16T20:09:03.126Z,96225.42
2019-02-16T20:11:57.813Z,96221.60
2019-02-16T20:14:45.506Z,96221.60
2019-02-16T20:17:38.573Z,96220.10
2019-02-16T20:20:27.076Z,96226.91
2019-02-16T20:23:18.580Z,96226.91
2019-02-16T20:26:05.936Z,96232.83
2019-02-16T20:28:56.039Z,96232.83
2019-02-16T20:31:44.278Z,96237.66
2019-02-16T20:34:35.989Z,96233.17
2019-02-16T20:37:33.446Z,96233.17
2019-02-16T20:40:32.393Z,96231.55
2019-02-16T20:43:30.032Z,96234.47
2019-02-16T20:46:17.202Z,96240.54
2019-02-16T20:48:58.741Z,96237.97
2019-02-16T20:51:46.187Z,96237.97
2019-02-16T20:54:35.057Z,96236.08
2019-02-16T20:57:23.791Z,96230.03
2019-02-16T21:00:27.833Z,96237.14
2019-02-16T21:03:22.123Z,96232.84
2019-02-16T21:06:14.131Z,96236.66
2019-02-16T21:09:05.860Z,96234.81
2019-02-16T21:11:59.458Z,96236.03
2019-02-16T21:14:38.503Z,96220.13
2019-02-16T21:17:39.102Z,96220.13
2019-02-16T21:20:27.741Z,96230.96
2019-02-16T21:23:16.576Z,96229.92
2019-02-16T21:26:05.390Z,96228.69
2019-02-16T21:28:54.025Z,96228.69
2019-02-16T21:31:48.487Z,96237.59
2019-02-16T21:34:53.725Z,96226.75
2019-02-16T21:37:57.699Z,96226.75
2019-02-16T21:40:45.193Z,96237.80
2019-02-16T21:43:42.661Z,96234.70
2019-02-16T21:46:29.647Z,96229.31
2019-02-16T21:49:21.378Z,96230.80
2019-02-16T21:52:28.723Z,96225.84
2019-02-16T21:55:17.234Z,96227.25
2019-02-16T21:58:08.025Z,96227.25
2019-02-16T22:00:55.024Z,96232.44
2019-02-16T22:03:46.512Z,96232.44
2019-02-16T22:06:27.750Z,96233.98
2019-02-16T22:09:19.191Z,96233.39
2019-02-16T22:12:04.180Z,96225.39
2019-02-16T22:14:33.902Z,96234.95
2019-02-16T22:17:03.722Z,96223.75
2019-02-16T22:19:33.478Z,96235.16
2019-02-16T22:22:03.383Z,96227.84
2019-02-16T22:24:33.189Z,96224.81
2019-02-16T22:27:02.969Z,96224.81
2019-02-16T22:29:32.770Z,96225.56
2019-02-16T22:32:02.617Z,96217.05
2019-02-16T22:34:32.098Z,96217.05
2019-02-16T22:37:01.734Z,96220.11
2019-02-16T22:39:31.471Z,96220.11
2019-02-16T22:42:01.307Z,96213.59
2019-02-16T22:44:31.175Z,96211.50
2019-02-16T22:47:00.953Z,96218.83
2019-02-16T22:49:30.690Z,96218.83
2019-02-16T22:52:00.561Z,96209.74
2019-02-16T22:54:30.718Z,96222.00
2019-02-16T22:57:00.465Z,96224.66
2019-02-16T22:59:30.051Z,96224.86
2019-02-16T23:01:59.943Z,96224.86
2019-02-16T23:04:29.750Z,96222.78
2019-02-16T23:06:59.536Z,96215.54
2019-02-16T23:09:30.009Z,96224.09
2019-02-16T23:11:59.754Z,96223.78
2019-02-16T23:14:29.971Z,96225.06
2019-02-16T23:16:59.804Z,96217.44
2019-02-16T23:19:29.683Z,96212.27
2019-02-16T23:21:59.402Z,96210.49
2019-02-16T23:24:29.319Z,96210.49
2019-02-16T23:26:59.055Z,96204.40
2019-02-16T23:29:28.676Z,96204.40
2019-02-16T23:31:58.409Z,96212.87
2019-02-16T23:34:28.220Z,96205.57
2019-02-16T23:36:57.711Z,96205.57
2019-02-16T23:39:27.549Z,96209.66
2019-02-16T23:41:57.278Z,96205.32
2019-02-16T23:44:27.022Z,96203.35
2019-02-16T23:46:56.668Z,96204.75
2019-02-16T23:49:26.363Z,96204.35
2019-02-16T23:51:56.100Z,96211.34
2019-02-16T23:54:25.740Z,96207.09
2019-02-16T23:56:55.651Z,96206.42
2019-02-16T23:59:25.379Z,96206.42
